createdAt,value
2023-05-14T00:01:57.174Z,14.36
2023-05-14T00:04:59.116Z,13.84
2023-05-14T00:08:01.031Z,13.51
2023-05-14T00:11:02.957Z,14.75
2023-05-14T00:14:04.958Z,13.85
2023-05-14T00:17:07.031Z,13.61
2023-05-14T00:20:09.058Z,14.27
2023-05-14T00:23:10.895Z,14.00
2023-05-14T00:26:13.116Z,15.24
2023-05-14T00:29:15.004Z,14.73
2023-05-14T00:32:16.931Z,14.95
2023-05-14T00:35:20.477Z,14.69
2023-05-14T00:38:24.186Z,14.40
2023-05-14T00:41:26.076Z,14.43
2023-05-14T00:44:28.065Z,13.96
2023-05-14T00:47:30.026Z,13.74
2023-05-14T00:50:32.020Z,14.30
2023-05-14T00:53:33.969Z,14.60
2023-05-14T00:56:35.793Z,14.14
2023-05-14T00:59:37.809Z,14.58
2023-05-14T01:02:39.764Z,15.02
2023-05-14T01:05:42.401Z,13.97
2023-05-14T01:09:01.658Z,14.69
2023-05-14T01:12:03.634Z,14.12
2023-05-14T01:15:11.581Z,13.69
2023-05-14T01:18:14.086Z,13.81
2023-05-14T01:21:36.915Z,14.08
2023-05-14T01:24:38.946Z,13.61
2023-05-14T01:27:54.658Z,14.46
2023-05-14T01:31:05.912Z,14.03
2023-05-14T01:34:07.867Z,13.96
2023-05-14T01:37:11.943Z,14.28
2023-05-14T01:40:14.267Z,13.75
2023-05-14T01:43:16.480Z,13.37
2023-05-14T01:46:19.537Z,13.27
2023-05-14T01:49:21.587Z,13.21
2023-05-14T01:52:23.630Z,13.47
2023-05-14T01:55:25.999Z,13.59
2023-05-14T01:58:27.900Z,13.93
2023-05-14T02:01:30.064Z,13.17
2023-05-14T02:04:31.997Z,12.87
2023-05-14T02:07:33.924Z,13.44
2023-05-14T02:10:35.912Z,13.32
2023-05-14T02:13:37.789Z,12.65
2023-05-14T02:16:39.789Z,13.04
2023-05-14T02:19:41.758Z,13.94
2023-05-14T02:22:45.814Z,13.58
2023-05-14T02:25:50.054Z,14.12
2023-05-14T02:28:51.892Z,14.07
2023-05-14T02:31:53.937Z,14.40
2023-05-14T02:34:55.963Z,13.80
2023-05-14T02:37:59.676Z,14.06
2023-05-14T02:41:01.760Z,14.17
2023-05-14T02:44:03.615Z,14.39
2023-05-14T02:47:05.763Z,14.20
2023-05-14T02:50:08.024Z,14.61
2023-05-14T02:53:09.932Z,14.89
2023-05-14T02:56:11.938Z,13.47
2023-05-14T02:59:13.905Z,14.33
2023-05-14T03:02:16.172Z,14.39
2023-05-14T03:05:18.606Z,13.72
2023-05-14T03:08:22.993Z,13.25
2023-05-14T03:11:24.868Z,14.19
2023-05-14T03:14:26.842Z,14.42
2023-05-14T03:17:28.797Z,14.27
2023-05-14T03:20:30.810Z,13.48
2023-05-14T03:23:37.269Z,14.62
2023-05-14T03:26:39.092Z,14.69
2023-05-14T03:29:41.059Z,15.13
2023-05-14T03:32:43.074Z,14.40
2023-05-14T03:35:45.213Z,14.49
2023-05-14T03:38:47.147Z,14.24
2023-05-14T03:41:49.117Z,14.13
2023-05-14T03:44:50.993Z,13.77
2023-05-14T03:47:52.976Z,14.17
2023-05-14T03:50:54.896Z,13.69
2023-05-14T03:53:58.047Z,14.51
2023-05-14T03:56:59.919Z,13.88
2023-05-14T04:00:01.844Z,13.82
2023-05-14T04:03:04.174Z,14.42
2023-05-14T04:06:06.392Z,14.06
2023-05-14T04:09:08.347Z,13.51
2023-05-14T04:12:10.310Z,14.12
2023-05-14T04:15:12.381Z,14.34
2023-05-14T04:18:14.351Z,14.39
2023-05-14T04:21:16.349Z,13.75
2023-05-14T04:24:18.413Z,13.79
2023-05-14T04:27:21.212Z,14.03
2023-05-14T04:30:23.215Z,13.70
2023-05-14T04:33:25.479Z,13.38
2023-05-14T04:36:27.417Z,13.99
2023-05-14T04:39:29.316Z,13.91
2023-05-14T04:42:31.248Z,14.40
2023-05-14T04:45:34.249Z,13.74
2023-05-14T04:48:36.485Z,13.70
2023-05-14T04:51:38.400Z,13.57
2023-05-14T04:54:40.882Z,13.69
2023-05-14T04:57:42.883Z,14.26
2023-05-14T05:00:44.789Z,13.34
2023-05-14T05:03:46.701Z,13.86
2023-05-14T05:06:48.575Z,14.30
2023-05-14T05:09:50.642Z,14.46
2023-05-14T05:12:52.572Z,14.22
2023-05-14T05:15:54.520Z,14.38
2023-05-14T05:18:56.548Z,14.57
2023-05-14T05:21:58.649Z,14.61
2023-05-14T05:25:00.671Z,13.69
2023-05-14T05:28:02.592Z,14.22
2023-05-14T05:31:04.760Z,14.12
2023-05-14T05:34:09.227Z,14.32
2023-05-14T05:37:13.177Z,13.83
2023-05-14T05:40:15.827Z,13.95
2023-05-14T05:43:17.722Z,13.79
2023-05-14T05:46:19.845Z,14.32
2023-05-14T05:49:21.776Z,14.57
2023-05-14T05:52:23.799Z,14.54
2023-05-14T05:55:25.792Z,14.35
2023-05-14T05:58:27.728Z,14.38
2023-05-14T06:01:29.782Z,14.27
2023-05-14T06:04:31.869Z,14.78
2023-05-14T06:07:33.915Z,14.74
2023-05-14T06:10:36.335Z,14.42
2023-05-14T06:13:38.162Z,14.99
2023-05-14T06:16:40.184Z,14.67
2023-05-14T06:19:42.078Z,14.30
2023-05-14T06:22:44.122Z,14.09
2023-05-14T06:25:45.939Z,14.55
2023-05-14T06:28:47.845Z,13.77
2023-05-14T06:31:49.715Z,14.99
2023-05-14T06:34:51.640Z,14.97
2023-05-14T06:37:53.589Z,14.36
2023-05-14T06:40:55.438Z,14.41
2023-05-14T06:43:57.742Z,14.02
2023-05-14T06:46:59.721Z,14.52
2023-05-14T06:50:02.011Z,14.62
2023-05-14T06:53:04.233Z,14.24
2023-05-14T06:56:06.119Z,14.45
2023-05-14T06:59:08.028Z,14.76
2023-05-14T07:02:09.963Z,14.82
2023-05-14T07:05:11.941Z,15.13
2023-05-14T07:08:13.978Z,15.52
2023-05-14T07:11:16.001Z,15.14
2023-05-14T07:14:18.098Z,15.91
2023-05-14T07:17:19.985Z,14.99
2023-05-14T07:20:23.945Z,14.78
2023-05-14T07:23:26.325Z,15.47
2023-05-14T07:26:28.961Z,15.07
2023-05-14T07:29:31.198Z,16.07
2023-05-14T07:32:33.425Z,15.96
2023-05-14T07:35:35.460Z,15.81
2023-05-14T07:38:37.356Z,16.46
2023-05-14T07:41:39.240Z,16.39
2023-05-14T07:44:41.206Z,16.21
2023-05-14T07:47:43.171Z,15.32
2023-05-14T07:50:45.472Z,15.23
2023-05-14T07:53:47.471Z,15.19
2023-05-14T07:56:49.608Z,16.18
2023-05-14T07:59:51.909Z,15.21
2023-05-14T08:02:54.906Z,16.10
2023-05-14T08:05:56.999Z,15.72
2023-05-14T08:08:58.901Z,15.55
2023-05-14T08:12:01.070Z,15.01
2023-05-14T08:15:03.099Z,16.09
2023-05-14T08:18:05.459Z,15.41
2023-05-14T08:21:07.425Z,16.90
2023-05-14T08:24:09.269Z,16.00
2023-05-14T08:27:11.191Z,16.27
2023-05-14T08:30:13.383Z,15.25
2023-05-14T08:33:15.406Z,16.09
2023-05-14T08:36:17.328Z,15.61
2023-05-14T08:39:19.199Z,15.39
2023-05-14T08:42:21.832Z,15.79
2023-05-14T08:45:34.257Z,15.76
2023-05-14T08:48:36.365Z,16.33
2023-05-14T08:51:38.463Z,16.35
2023-05-14T08:54:40.389Z,15.88
2023-05-14T08:57:42.397Z,15.54
2023-05-14T09:00:44.377Z,16.36
2023-05-14T09:03:46.575Z,16.60
2023-05-14T09:06:49.036Z,16.04
2023-05-14T09:09:53.944Z,16.85
2023-05-14T09:12:56.284Z,15.78
2023-05-14T09:15:58.133Z,15.98
2023-05-14T09:19:00.146Z,16.40
2023-05-14T09:22:02.144Z,16.69
2023-05-14T09:25:05.146Z,16.15
2023-05-14T09:28:08.718Z,16.23
2023-05-14T09:31:10.761Z,16.17
2023-05-14T09:34:13.584Z,15.88
2023-05-14T09:37:15.535Z,16.35
2023-05-14T09:40:18.794Z,16.40
2023-05-14T09:43:20.649Z,16.16
2023-05-14T09:46:23.784Z,15.72
2023-05-14T09:49:25.922Z,16.60
2023-05-14T09:52:27.944Z,16.77
2023-05-14T09:55:29.845Z,16.41
2023-05-14T09:58:31.809Z,16.49
2023-05-14T10:01:33.725Z,16.32
2023-05-14T10:04:35.767Z,16.24
2023-05-14T10:07:48.245Z,15.88
2023-05-14T10:10:51.099Z,16.15
2023-05-14T10:13:58.351Z,16.07
2023-05-14T10:17:00.376Z,15.97
2023-05-14T10:20:02.737Z,15.80
2023-05-14T10:23:05.028Z,15.75
2023-05-14T10:26:07.091Z,15.17
2023-05-14T10:29:12.729Z,16.00
2023-05-14T10:32:14.940Z,15.54
2023-05-14T10:35:17.781Z,15.04
2023-05-14T10:38:22.225Z,15.31
2023-05-14T10:41:24.382Z,16.78
2023-05-14T10:44:26.416Z,15.90
2023-05-14T10:47:28.566Z,16.04
2023-05-14T10:50:30.591Z,15.93
2023-05-14T10:53:42.404Z,16.42
2023-05-14T10:56:45.995Z,16.72
2023-05-14T10:59:48.910Z,16.30
2023-05-14T11:02:51.642Z,16.48
2023-05-14T11:05:53.455Z,16.64
2023-05-14T11:08:55.533Z,16.64
2023-05-14T11:11:57.587Z,17.00
2023-05-14T11:15:00.321Z,16.50
2023-05-14T11:18:02.242Z,15.88
2023-05-14T11:21:04.406Z,15.34
2023-05-14T11:24:07.542Z,15.98
2023-05-14T11:27:10.314Z,16.79
2023-05-14T11:30:13.197Z,16.60
2023-05-14T11:33:15.793Z,15.99
2023-05-14T11:36:17.749Z,16.31
2023-05-14T11:39:19.696Z,16.17
2023-05-14T11:42:22.351Z,15.58
2023-05-14T11:45:25.607Z,16.09
2023-05-14T11:48:27.457Z,15.92
2023-05-14T11:51:29.359Z,15.80
2023-05-14T11:54:31.863Z,16.30
2023-05-14T11:57:33.673Z,15.56
2023-05-14T12:00:35.733Z,15.54
2023-05-14T12:03:38.003Z,16.00
2023-05-14T12:06:40.332Z,15.64
2023-05-14T12:09:45.191Z,15.70
2023-05-14T12:12:47.664Z,15.33
2023-05-14T12:15:59.656Z,15.87
2023-05-14T12:19:01.842Z,15.56
2023-05-14T12:22:03.767Z,15.08
2023-05-14T12:25:10.275Z,15.10
2023-05-14T12:28:18.811Z,15.06
2023-05-14T12:31:27.826Z,15.36
2023-05-14T12:34:29.914Z,15.21
2023-05-14T12:37:31.838Z,16.01
2023-05-14T12:40:33.765Z,15.34
2023-05-14T12:43:35.839Z,15.98
2023-05-14T12:46:37.822Z,16.62
2023-05-14T12:49:39.710Z,15.54
2023-05-14T12:52:41.567Z,16.23
2023-05-14T12:55:43.421Z,16.66
2023-05-14T12:58:46.736Z,16.33
2023-05-14T13:01:48.722Z,15.34
2023-05-14T13:04:50.770Z,15.94
2023-05-14T13:07:52.884Z,15.41
2023-05-14T13:10:54.893Z,16.41
2023-05-14T13:13:56.916Z,15.89
2023-05-14T13:16:59.002Z,15.36
2023-05-14T13:20:01.025Z,15.47
2023-05-14T13:23:02.980Z,15.50
2023-05-14T13:26:04.893Z,15.76
2023-05-14T13:29:06.933Z,15.66
2023-05-14T13:32:09.038Z,14.54
2023-05-14T13:35:11.081Z,15.00
2023-05-14T13:38:15.601Z,15.74
2023-05-14T13:41:17.580Z,14.73
2023-05-14T13:44:19.526Z,15.47
2023-05-14T13:47:21.349Z,15.12
2023-05-14T13:50:23.337Z,14.74
2023-05-14T13:53:25.518Z,14.76
2023-05-14T13:56:30.176Z,15.14
2023-05-14T13:59:32.245Z,14.71
2023-05-14T14:02:34.328Z,15.75
2023-05-14T14:05:36.839Z,15.54
2023-05-14T14:08:38.706Z,14.87
2023-05-14T14:11:41.125Z,15.22
2023-05-14T14:14:43.168Z,15.70
2023-05-14T14:17:45.145Z,15.43
2023-05-14T14:20:47.104Z,15.61
2023-05-14T14:23:49.105Z,15.54
2023-05-14T14:26:50.995Z,16.26
2023-05-14T14:29:53.039Z,15.58
2023-05-14T14:32:55.147Z,15.37
2023-05-14T14:35:57.037Z,15.24
2023-05-14T14:38:58.858Z,16.01
2023-05-14T14:42:00.864Z,16.25
2023-05-14T14:45:02.925Z,16.46
2023-05-14T14:48:23.959Z,15.82
2023-05-14T14:51:26.276Z,15.98
2023-05-14T14:54:28.099Z,14.57
2023-05-14T14:57:30.098Z,15.29
2023-05-14T15:00:31.938Z,15.07
2023-05-14T15:03:34.005Z,14.78
2023-05-14T15:06:36.065Z,14.79
2023-05-14T15:09:38.042Z,14.43
2023-05-14T15:12:40.029Z,14.87
2023-05-14T15:15:42.133Z,13.48
2023-05-14T15:18:44.169Z,13.76
2023-05-14T15:21:46.101Z,14.13
2023-05-14T15:24:47.972Z,13.65
2023-05-14T15:27:50.296Z,13.85
2023-05-14T15:30:52.163Z,14.01
2023-05-14T15:33:56.068Z,14.08
2023-05-14T15:36:58.008Z,13.81
2023-05-14T15:39:59.962Z,13.96
2023-05-14T15:43:04.609Z,14.21
2023-05-14T15:46:06.601Z,13.89
2023-05-14T15:49:08.554Z,14.40
2023-05-14T15:52:10.376Z,14.20
2023-05-14T15:55:12.243Z,13.27
2023-05-14T15:58:14.352Z,13.52
2023-05-14T16:01:16.424Z,13.58
2023-05-14T16:04:18.363Z,13.52
2023-05-14T16:07:20.237Z,13.49
2023-05-14T16:10:22.536Z,13.49
2023-05-14T16:13:24.671Z,14.07
2023-05-14T16:16:26.499Z,14.39
2023-05-14T16:19:28.632Z,14.09
2023-05-14T16:22:32.605Z,13.82
2023-05-14T16:25:34.517Z,13.31
2023-05-14T16:28:36.431Z,13.73
2023-05-14T16:31:38.442Z,13.91
2023-05-14T16:34:41.540Z,14.25
2023-05-14T16:37:43.728Z,14.81
2023-05-14T16:40:45.582Z,14.10
2023-05-14T16:43:50.540Z,13.99
2023-05-14T16:46:52.520Z,14.05
2023-05-14T16:49:54.415Z,13.79
2023-05-14T16:52:57.007Z,14.03
2023-05-14T16:55:59.005Z,14.44
2023-05-14T16:59:00.998Z,14.23
2023-05-14T17:02:03.559Z,14.04
2023-05-14T17:05:06.501Z,14.58
2023-05-14T17:08:08.709Z,14.93
2023-05-14T17:11:10.779Z,14.32
2023-05-14T17:14:12.657Z,13.77
2023-05-14T17:17:14.569Z,14.22
2023-05-14T17:20:17.048Z,14.27
2023-05-14T17:23:19.898Z,15.40
2023-05-14T17:26:21.812Z,14.73
2023-05-14T17:29:23.734Z,14.31
2023-05-14T17:32:26.013Z,14.47
2023-05-14T17:35:27.981Z,14.44
2023-05-14T17:38:30.267Z,14.09
2023-05-14T17:41:32.176Z,13.78
2023-05-14T17:44:34.260Z,14.26
2023-05-14T17:47:36.456Z,13.66
2023-05-14T17:50:39.730Z,13.19
2023-05-14T17:53:42.191Z,13.65
2023-05-14T17:56:44.267Z,13.92
2023-05-14T17:59:46.101Z,13.86
2023-05-14T18:02:48.786Z,14.23
2023-05-14T18:05:51.236Z,14.09
2023-05-14T18:08:53.209Z,14.22
2023-05-14T18:11:56.957Z,14.23
2023-05-14T18:14:59.184Z,14.47
2023-05-14T18:18:01.282Z,14.35
2023-05-14T18:21:03.193Z,14.81
2023-05-14T18:24:05.650Z,14.27
2023-05-14T18:27:07.767Z,14.75
2023-05-14T18:30:11.016Z,14.42
2023-05-14T18:33:13.110Z,14.82
2023-05-14T18:36:15.146Z,15.30
2023-05-14T18:39:17.074Z,15.64
2023-05-14T18:42:19.035Z,15.82
2023-05-14T18:45:22.065Z,15.50
2023-05-14T18:48:24.096Z,14.25
2023-05-14T18:51:26.087Z,15.52
2023-05-14T18:54:28.033Z,14.94
2023-05-14T18:57:32.174Z,14.49
2023-05-14T19:00:34.089Z,13.99
2023-05-14T19:03:36.030Z,14.25
2023-05-14T19:06:40.275Z,13.93
2023-05-14T19:09:42.111Z,15.36
2023-05-14T19:12:43.978Z,15.25
2023-05-14T19:15:45.912Z,14.93
2023-05-14T19:18:47.995Z,14.63
2023-05-14T19:21:49.900Z,15.17
2023-05-14T19:24:51.782Z,14.47
2023-05-14T19:27:55.364Z,15.44
2023-05-14T19:30:57.370Z,14.41
2023-05-14T19:33:59.428Z,15.33
2023-05-14T19:37:01.318Z,15.81
2023-05-14T19:40:03.671Z,15.34
2023-05-14T19:43:05.560Z,15.23
2023-05-14T19:46:07.481Z,15.10
2023-05-14T19:49:09.305Z,14.94
2023-05-14T19:52:11.484Z,15.56
2023-05-14T19:55:13.374Z,15.03
2023-05-14T19:58:15.311Z,15.80
2023-05-14T20:01:17.386Z,15.31
2023-05-14T20:04:22.020Z,15.29
2023-05-14T20:07:25.584Z,15.85
2023-05-14T20:10:27.726Z,14.57
2023-05-14T20:13:32.097Z,14.63
2023-05-14T20:16:34.273Z,14.56
2023-05-14T20:19:36.138Z,15.49
2023-05-14T20:22:38.583Z,15.61
2023-05-14T20:25:41.441Z,15.10
2023-05-14T20:28:43.684Z,15.59
2023-05-14T20:31:45.538Z,15.10
2023-05-14T20:34:47.369Z,15.15
2023-05-14T20:37:49.602Z,16.04
2023-05-14T20:40:52.059Z,15.73
2023-05-14T20:43:53.974Z,15.23
2023-05-14T20:46:55.887Z,15.70
2023-05-14T20:49:57.792Z,15.75
2023-05-14T20:52:59.715Z,15.07
2023-05-14T20:56:01.645Z,14.86
2023-05-14T20:59:03.772Z,15.21
2023-05-14T21:02:06.160Z,15.44
2023-05-14T21:05:08.217Z,14.39
2023-05-14T21:08:10.883Z,15.06
2023-05-14T21:11:12.905Z,15.57
2023-05-14T21:14:15.173Z,15.05
2023-05-14T21:17:17.151Z,15.09
2023-05-14T21:20:19.008Z,15.18
2023-05-14T21:23:20.925Z,15.95
2023-05-14T21:26:22.868Z,15.58
2023-05-14T21:29:25.161Z,15.79
2023-05-14T21:32:27.751Z,15.17
2023-05-14T21:35:29.802Z,15.30
2023-05-14T21:38:32.566Z,15.26
2023-05-14T21:41:34.530Z,15.05
2023-05-14T21:44:36.475Z,15.16
2023-05-14T21:47:38.573Z,14.57
2023-05-14T21:50:40.692Z,15.52
2023-05-14T21:53:42.498Z,15.30
2023-05-14T21:56:44.568Z,14.51
2023-05-14T21:59:46.360Z,14.87
2023-05-14T22:02:48.266Z,15.17
2023-05-14T22:05:50.268Z,14.99
2023-05-14T22:08:52.097Z,14.71
2023-05-14T22:11:54.020Z,14.92
2023-05-14T22:14:55.887Z,15.17
2023-05-14T22:17:57.938Z,15.54
2023-05-14T22:20:59.784Z,15.73
2023-05-14T22:24:01.651Z,15.69
2023-05-14T22:27:03.682Z,16.14
2023-05-14T22:30:05.964Z,15.61
2023-05-14T22:33:08.001Z,15.48
2023-05-14T22:36:10.509Z,15.25
2023-05-14T22:39:13.523Z,15.48
2023-05-14T22:42:15.798Z,15.99
2023-05-14T22:45:17.665Z,15.97
2023-05-14T22:48:19.519Z,15.37
2023-05-14T22:51:21.411Z,15.29
2023-05-14T22:54:23.317Z,15.84
2023-05-14T22:57:25.496Z,15.47
2023-05-14T23:00:27.427Z,15.77
2023-05-14T23:03:29.695Z,15.88
2023-05-14T23:06:31.962Z,15.55
2023-05-14T23:09:33.873Z,15.91
2023-05-14T23:12:38.097Z,15.46
2023-05-14T23:15:40.040Z,15.27
2023-05-14T23:18:42.171Z,15.45
2023-05-14T23:21:44.196Z,16.43
2023-05-14T23:24:48.160Z,15.12
2023-05-14T23:27:50.154Z,15.37
2023-05-14T23:30:52.026Z,15.16
2023-05-14T23:33:53.911Z,15.22
2023-05-14T23:36:55.853Z,15.43
2023-05-14T23:39:57.694Z,15.01
2023-05-14T23:43:00.343Z,15.38
2023-05-14T23:46:02.588Z,15.80
2023-05-14T23:49:04.713Z,14.83
2023-05-14T23:52:06.745Z,15.30
2023-05-14T23:55:08.842Z,15.11
2023-05-14T23:58:10.720Z,15.73
